Beloit, KS

1:14 AM CST on March 04, 2015 (GMT -0600)
Kansas | Change Station
CLOSE
Current Station
Personal Weather Station
Location: Beloit, KS
Elevation: 1404 ft
Nearby Weather Stations

Elev 1404 ft 39.46 °N, 98.10 °W | Updated 10 seconds ago

Overcast
Overcast
22.2 °F
Feels Like 22 °F
N
2.8
Wind Variable Wind from NNW
Gusts 17.0 mph

Today
High -- | Low -- °F
--% Chance of Precip.
Yesterday
High -- | Low -- °F
Precip. -- in
7:01 AM 6:27 PM
Waxing Gibbous, 98% visible
Pressure 30.21 in
Visibility 10.0 miles
Clouds Scattered Clouds 5500 ft
Overcast 7500 ft
Windchill 22 °F
Dew Point 11 °F
Humidity 55%
Rainfall 0.00 in
Snow Depth Not available.
UV 0 out of 12
Pollen 3.40 out of 12
Air Quality Not available.
Flu Activity Not available.
METAR KCNK 040655Z AUTO 36015G21KT 10SM SCT055 OVC075 M06/M14 A3017 RMK AO2 SLP228 T10561139 $

More Conditions Fewer Conditions

Pressure 30.21 in
Visibility 10.0 miles
Clouds Scattered Clouds 5500 ft
Overcast 7500 ft
Windchill 22 °F
Dew Point 11 °F
Humidity 55%
Rainfall 0.00 in
Snow Depth Not available.
UV 0 out of 12
Pollen 3.40 out of 12
Air Quality Not available.
Flu Activity Not available.
METAR KCNK 040655Z AUTO 36015G21KT 10SM SCT055 OVC075 M06/M14 A3017 RMK AO2 SLP228 T10561139 $

More Conditions Fewer Conditions

10-Day Weather Forecast

Almanac

Astronomy

Mar. 04, 2015 Rise Set
Actual Time
Civil Twilight
Nautical Twilight
Astronomical Twilight
Moon
Length of Visible Light
Length of Day
Tomorrow will be .
, % of the Moon is Illuminated

Today's Extremes

State Highs State Lows

Community

WunderPhotos

Upload Photos

1,802,402 photos uploaded!

WunderBlogs® & News

Nearby

Air Quality

  Air Quality AQ Index Pollutant
Not available.

Snow Depth

Station Depth Elevation

Earthquake Activity

City Distance Mag. Time & Date
Minimum magnitude displayed is 2.5.

Coastal Water Temperatures

Place Temperature

Nearby Weather Stations